Friday, October 24, 2014, 7:06 PM EDT

KFYJ, West Point, Middle Peninsula Regional Airport

Location: Shacklefords, VA, United States Lat: 37.521
Local Time: 7:06 PM EDT (23:06 GMT) Lon: -76.764
Time Zone: US/Eastern Elev: 22 ft

Show me the last for .
Show Decoded

2014-10-24 18:35 METAR KFYJ 242235Z AUTO 00000KT 10SM CLR 17/05 A2994 RMK AO2 T01650047 =
2014-10-24 18:15 METAR KFYJ 242215Z AUTO 30003KT 10SM CLR 18/03 A2994 RMK AO2 T01820025 =
2014-10-24 17:55 METAR KFYJ 242155Z AUTO 29006KT 10SM CLR 19/03 A2993 RMK AO2 T01880034 =
2014-10-24 17:35 METAR KFYJ 242135Z AUTO 30006KT 10SM CLR 20/03 A2993 RMK AO2 T02000025 =
2014-10-24 17:15 METAR KFYJ 242115Z AUTO 27009KT 10SM CLR 21/03 A2993 RMK AO2 T02080029 =
2014-10-24 16:55 METAR KFYJ 242055Z AUTO 28007KT 10SM CLR 21/03 A2993 RMK AO2 T02100028 =
2014-10-24 16:35 METAR KFYJ 242035Z AUTO 28008KT 10SM CLR 21/02 A2993 RMK AO2 T02120023 =
2014-10-24 16:15 METAR KFYJ 242015Z AUTO 27008KT 10SM CLR 22/02 A2993 RMK AO2 T02150022 =
2014-10-24 15:55 METAR KFYJ 241955Z AUTO 30007KT 10SM CLR 22/03 A2993 RMK AO2 T02160029 =
2014-10-24 15:35 METAR KFYJ 241935Z AUTO 26009G14KT 10SM CLR 22/03 A2993 RMK AO2 T02180034 =
2014-10-24 15:15 METAR KFYJ 241915Z AUTO 28008KT 10SM CLR 21/04 A2993 RMK AO2 T02120036 =
2014-10-24 14:55 METAR KFYJ 241855Z AUTO 30009KT 10SM CLR 21/04 A2993 RMK AO2 T02050038 =
2014-10-24 14:35 METAR KFYJ 241835Z AUTO 28010G14KT 10SM CLR 21/04 A2993 RMK AO2 T02110037 =
2014-10-24 14:15 METAR KFYJ 241815Z AUTO 30004G15KT 10SM CLR 21/05 A2994 RMK AO2 T02090046 =
2014-10-24 13:55 METAR KFYJ 241755Z AUTO 27006KT 10SM CLR 21/05 A2994 RMK AO2 T02110052 10211
                 20114 =
2014-10-24 13:35 METAR KFYJ 241735Z AUTO 31008G14KT 10SM CLR 21/05 A2995 RMK AO2 T02050047 =
2014-10-24 13:15 METAR KFYJ 241715Z AUTO 31008G14KT 270V330 10SM CLR 20/05 A2996 RMK AO2
                 T02030050 =
2014-10-24 12:55 METAR KFYJ 241655Z AUTO 31006KT 10SM CLR 20/06 A2997 RMK AO2 T02000055 =
2014-10-24 12:35 METAR KFYJ 241635Z AUTO 31009G15KT 290V350 10SM CLR 19/05 A2999 RMK AO2
                 T01940050 =
2014-10-24 12:15 METAR KFYJ 241615Z AUTO 31007KT 10SM CLR 19/06 A2999 RMK AO2 T01880061 =
2014-10-24 11:55 METAR KFYJ 241555Z AUTO 32005G16KT 10SM CLR 18/06 A2999 RMK AO2 T01780062 =
2014-10-24 11:35 METAR KFYJ 241535Z AUTO 30006KT 10SM CLR 17/07 A3001 RMK AO2 T01720067 =
2014-10-24 11:15 METAR KFYJ 241515Z AUTO 28007G14KT 10SM CLR 16/06 A3002 RMK AO2 T01630064 =
2014-10-24 10:55 METAR KFYJ 241455Z AUTO 31006G16KT 10SM CLR 16/06 A3001 RMK AO2 T01640061 =
2014-10-24 10:35 METAR KFYJ 241435Z AUTO 32008KT 300V360 10SM CLR 16/06 A3001 RMK AO2 T01620061 =
2014-10-24 10:15 METAR KFYJ 241415Z AUTO 31010G15KT 10SM CLR 16/06 A3001 RMK AO2 T01570058 =
2014-10-24 09:55 METAR KFYJ 241355Z AUTO 33009KT 10SM CLR 16/06 A3001 RMK AO2 T01550063 =
2014-10-24 09:35 METAR KFYJ 241335Z AUTO 30007KT 10SM CLR 14/06 A3001 RMK AO2 T01430063 =
2014-10-24 09:15 METAR KFYJ 241315Z AUTO 30005KT 10SM CLR 14/07 A3001 RMK AO2 T01400066 =
2014-10-24 08:55 METAR KFYJ 241255Z AUTO 28006KT 10SM CLR 13/07 A3001 RMK AO2 T01330071 =
2014-10-24 08:35 METAR KFYJ 241235Z AUTO 30006KT 10SM CLR 13/06 A3001 RMK AO2 T01250063 =
2014-10-24 08:15 METAR KFYJ 241215Z AUTO 31004KT 10SM CLR 12/06 A3000 RMK AO2 T01160062 =
2014-10-24 07:55 METAR KFYJ 241155Z AUTO 32004KT 10SM CLR 12/06 A2999 RMK AO2 T01160061 10145
                 20112 =
2014-10-24 07:35 METAR KFYJ 241135Z AUTO 29006KT 10SM CLR 12/06 A2999 RMK AO2 T01190063 =
2014-10-24 07:15 METAR KFYJ 241115Z AUTO 26007KT 10SM CLR 12/07 A3000 RMK AO2 T01150068 =
2014-10-24 06:55 METAR KFYJ 241055Z AUTO 31004KT 10SM CLR 12/06 A2999 RMK AO2 T01150060 =
2014-10-24 06:35 METAR KFYJ 241035Z AUTO 00000KT 10SM CLR 12/06 A2998 RMK AO2 T01150060 =
2014-10-24 06:15 METAR KFYJ 241015Z AUTO 30005KT 10SM CLR 12/06 A2997 RMK AO2 T01170061 =
2014-10-24 05:55 METAR KFYJ 240955Z AUTO 30005KT 10SM CLR 12/07 A2997 RMK AO2 T01180068 =
2014-10-24 05:35 METAR KFYJ 240935Z AUTO 28004KT 10SM CLR 12/07 A2997 RMK AO2 T01210066 =
2014-10-24 05:15 METAR KFYJ 240915Z AUTO 30003KT 10SM CLR 12/07 A2997 RMK AO2 T01210070 =
2014-10-24 04:55 METAR KFYJ 240855Z AUTO 28006KT 10SM CLR 13/07 A2996 RMK AO2 T01260068 =
2014-10-24 04:35 METAR KFYJ 240835Z AUTO 28007KT 10SM CLR 13/07 A2995 RMK AO2 T01250067 =
2014-10-24 04:15 METAR KFYJ 240815Z AUTO 27007KT 10SM CLR 13/07 A2994 RMK AO2 T01250066 =
2014-10-24 03:55 METAR KFYJ 240755Z AUTO 29004KT 10SM CLR 13/06 A2993 RMK AO2 T01270060 =
2014-10-24 03:35 METAR KFYJ 240735Z AUTO 32004KT 10SM CLR 13/06 A2993 RMK AO2 T01340062 =
2014-10-24 03:15 METAR KFYJ 240715Z AUTO 29005KT 10SM CLR 13/07 A2994 RMK AO2 T01330067 =
2014-10-24 02:55 METAR KFYJ 240655Z AUTO 28007KT 10SM CLR 14/07 A2994 RMK AO2 T01350066 =
2014-10-24 02:35 METAR KFYJ 240635Z AUTO 28008KT 10SM CLR 14/07 A2994 RMK AO2 T01370066 =
2014-10-24 02:15 METAR KFYJ 240615Z AUTO 30007KT 270V350 10SM CLR 14/07 A2994 RMK AO2 T01410068 =
2014-10-24 01:55 METAR KFYJ 240555Z AUTO 28005KT 10SM CLR 15/07 A2994 RMK AO2 T01450070 10160
                 20142 402120117 =
2014-10-24 01:35 METAR KFYJ 240535Z AUTO 29006KT 10SM CLR 14/07 A2995 RMK AO2 T01440069 =
2014-10-24 01:15 METAR KFYJ 240515Z AUTO 30006KT 10SM CLR 15/07 A2995 RMK AO2 T01450070 =
2014-10-24 00:55 METAR KFYJ 240455Z AUTO 29009KT 10SM CLR 15/07 A2995 RMK AO2 T01460070 =
2014-10-24 00:35 METAR KFYJ 240435Z AUTO 28007KT 10SM CLR 15/07 A2994 RMK AO2 T01470070 =
2014-10-24 00:15 METAR KFYJ 240415Z AUTO 28008KT 10SM CLR 15/07 A2994 RMK AO2 T01470070 =
2014-10-23 23:55 METAR KFYJ 240355Z AUTO 29007KT 10SM CLR 15/07 A2993 RMK AO2 T01500070 =
2014-10-23 23:35 METAR KFYJ 240335Z AUTO 28006KT 10SM CLR 16/07 A2994 RMK AO2 T01550069 =
2014-10-23 23:15 METAR KFYJ 240315Z AUTO 28008KT 10SM CLR 15/07 A2993 RMK AO2 T01520070 =
2014-10-23 22:55 METAR KFYJ 240255Z AUTO 28009KT 10SM CLR 15/07 A2993 RMK AO2 T01510070 =
2014-10-23 22:35 METAR KFYJ 240235Z AUTO 28008KT 10SM CLR 15/07 A2993 RMK AO2 T01530070 =
2014-10-23 22:15 METAR KFYJ 240215Z AUTO 28005KT 10SM CLR 16/07 A2993 RMK AO2 T01560069 =
2014-10-23 21:55 METAR KFYJ 240155Z AUTO 30007KT 10SM SCT060 16/07 A2992 RMK AO2 T01560070 =
2014-10-23 21:35 METAR KFYJ 240135Z AUTO 28007KT 10SM OVC060 16/07 A2991 RMK AO2 T01560074 =
2014-10-23 21:15 METAR KFYJ 240115Z AUTO 28005KT 10SM OVC060 16/08 A2991 RMK AO2 T01590076 =
2014-10-23 20:55 METAR KFYJ 240055Z AUTO 29003KT 10SM OVC060 15/08 A2991 RMK AO2 T01540078 =
2014-10-23 20:35 METAR KFYJ 240035Z AUTO 00000KT 10SM SCT060 15/08 A2991 RMK AO2 T01500075 =
2014-10-23 20:15 METAR KFYJ 240015Z AUTO 26004KT 10SM CLR 15/08 A2991 RMK AO2 T01500075 =
2014-10-23 19:55 METAR KFYJ 232355Z AUTO 27004KT 10SM CLR 16/08 A2991 RMK AO2 T01560075 10212
                 20155 =
2014-10-23 19:35 METAR KFYJ 232335Z AUTO 27005KT 10SM SCT050 16/08 A2991 RMK AO2 T01600075 =
2014-10-23 19:15 METAR KFYJ 232315Z AUTO 27006KT 10SM OVC050 17/07 A2991 RMK AO2 T01740069 =

Support USWX by starting your Amazon purchase here.